sensor_id;sensor_type;location;lat;lon;timestamp;P1;durP1;ratioP1;P2;durP2;ratioP2
41861;SDS011;27537;57.134;-2.136;2023-01-10T00:01:16;6.40;;;1.65;;
41861;SDS011;27537;57.134;-2.136;2023-01-10T00:03:43;4.88;;;1.75;;
41861;SDS011;27537;57.134;-2.136;2023-01-10T00:06:09;3.75;;;1.60;;
41861;SDS011;27537;57.134;-2.136;2023-01-10T00:08:36;8.02;;;1.52;;
41861;SDS011;27537;57.134;-2.136;2023-01-10T00:11:03;5.88;;;2.28;;
41861;SDS011;27537;57.134;-2.136;2023-01-10T00:13:54;6.28;;;1.95;;
41861;SDS011;27537;57.134;-2.136;2023-01-10T00:16:21;3.72;;;1.35;;
41861;SDS011;27537;57.134;-2.136;2023-01-10T00:18:48;4.78;;;1.30;;
41861;SDS011;27537;57.134;-2.136;2023-01-10T00:21:15;8.40;;;1.50;;
41861;SDS011;27537;57.134;-2.136;2023-01-10T00:23:42;4.32;;;1.55;;
41861;SDS011;27537;57.134;-2.136;2023-01-10T00:26:10;6.05;;;1.40;;
41861;SDS011;27537;57.134;-2.136;2023-01-10T00:28:37;4.88;;;1.60;;
41861;SDS011;27537;57.134;-2.136;2023-01-10T00:31:05;8.30;;;2.10;;
41861;SDS011;27537;57.134;-2.136;2023-01-10T00:33:33;7.47;;;1.95;;
41861;SDS011;27537;57.134;-2.136;2023-01-10T00:36:00;5.72;;;1.60;;
41861;SDS011;27537;57.134;-2.136;2023-01-10T00:38:29;6.53;;;1.65;;
41861;SDS011;27537;57.134;-2.136;2023-01-10T00:40:56;10.20;;;2.40;;
41861;SDS011;27537;57.134;-2.136;2023-01-10T00:43:24;5.95;;;2.30;;
41861;SDS011;27537;57.134;-2.136;2023-01-10T00:46:09;8.68;;;2.03;;
41861;SDS011;27537;57.134;-2.136;2023-01-10T00:48:36;8.30;;;1.80;;
41861;SDS011;27537;57.134;-2.136;2023-01-10T00:51:03;5.07;;;1.63;;
41861;SDS011;27537;57.134;-2.136;2023-01-10T00:53:30;20.20;;;2.42;;
41861;SDS011;27537;57.134;-2.136;2023-01-10T00:55:57;11.70;;;2.58;;
41861;SDS011;27537;57.134;-2.136;2023-01-10T00:58:24;6.18;;;1.77;;
41861;SDS011;27537;57.134;-2.136;2023-01-10T01:00:50;9.55;;;2.17;;
41861;SDS011;27537;57.134;-2.136;2023-01-10T01:03:18;13.98;;;2.50;;
41861;SDS011;27537;57.134;-2.136;2023-01-10T01:05:46;7.15;;;1.83;;
41861;SDS011;27537;57.134;-2.136;2023-01-10T01:08:14;8.52;;;2.35;;
41861;SDS011;27537;57.134;-2.136;2023-01-10T01:10:42;8.57;;;2.53;;
41861;SDS011;27537;57.134;-2.136;2023-01-10T01:13:11;8.20;;;2.33;;
41861;SDS011;27537;57.134;-2.136;2023-01-10T01:15:40;5.40;;;1.48;;
41861;SDS011;27537;57.134;-2.136;2023-01-10T01:18:08;7.25;;;1.50;;
41861;SDS011;27537;57.134;-2.136;2023-01-10T01:20:37;11.63;;;2.30;;
41861;SDS011;27537;57.134;-2.136;2023-01-10T01:23:05;7.70;;;1.77;;
41861;SDS011;27537;57.134;-2.136;2023-01-10T01:25:32;7.75;;;2.15;;
41861;SDS011;27537;57.134;-2.136;2023-01-10T01:27:59;9.68;;;2.08;;
41861;SDS011;27537;57.134;-2.136;2023-01-10T01:30:26;8.35;;;1.83;;
41861;SDS011;27537;57.134;-2.136;2023-01-10T01:32:52;8.32;;;2.30;;
41861;SDS011;27537;57.134;-2.136;2023-01-10T01:35:19;9.50;;;2.20;;
41861;SDS011;27537;57.134;-2.136;2023-01-10T01:37:47;8.90;;;1.80;;
41861;SDS011;27537;57.134;-2.136;2023-01-10T01:40:14;12.38;;;2.45;;
41861;SDS011;27537;57.134;-2.136;2023-01-10T01:42:43;6.40;;;1.83;;
41861;SDS011;27537;57.134;-2.136;2023-01-10T01:47:42;8.07;;;2.13;;
41861;SDS011;27537;57.134;-2.136;2023-01-10T01:50:17;9.18;;;2.22;;
41861;SDS011;27537;57.134;-2.136;2023-01-10T01:52:45;11.73;;;2.53;;
41861;SDS011;27537;57.134;-2.136;2023-01-10T01:55:14;10.93;;;1.80;;
41861;SDS011;27537;57.134;-2.136;2023-01-10T01:57:41;12.35;;;2.70;;
41861;SDS011;27537;57.134;-2.136;2023-01-10T02:00:09;4.95;;;1.63;;
41861;SDS011;27537;57.134;-2.136;2023-01-10T02:02:38;11.65;;;2.00;;
41861;SDS011;27537;57.134;-2.136;2023-01-10T02:05:26;8.25;;;1.98;;
41861;SDS011;27537;57.134;-2.136;2023-01-10T02:07:55;13.10;;;2.80;;
41861;SDS011;27537;57.134;-2.136;2023-01-10T02:10:40;8.32;;;2.00;;
41861;SDS011;27537;57.134;-2.136;2023-01-10T02:13:10;8.20;;;2.20;;
41861;SDS011;27537;57.134;-2.136;2023-01-10T02:15:40;15.02;;;2.28;;
41861;SDS011;27537;57.134;-2.136;2023-01-10T02:18:07;9.27;;;2.20;;
41861;SDS011;27537;57.134;-2.136;2023-01-10T02:20:41;9.52;;;2.00;;
41861;SDS011;27537;57.134;-2.136;2023-01-10T02:45:36;8.70;;;2.05;;
41861;SDS011;27537;57.134;-2.136;2023-01-10T02:48:04;6.87;;;2.07;;
41861;SDS011;27537;57.134;-2.136;2023-01-10T02:53:08;9.70;;;2.38;;
41861;SDS011;27537;57.134;-2.136;2023-01-10T03:01:56;6.68;;;1.80;;
41861;SDS011;27537;57.134;-2.136;2023-01-10T03:04:43;8.57;;;2.85;;
41861;SDS011;27537;57.134;-2.136;2023-01-10T03:10:05;8.13;;;1.83;;
41861;SDS011;27537;57.134;-2.136;2023-01-10T03:15:28;8.50;;;1.70;;
41861;SDS011;27537;57.134;-2.136;2023-01-10T03:18:01;9.70;;;2.05;;
41861;SDS011;27537;57.134;-2.136;2023-01-10T03:20:30;5.55;;;1.45;;
41861;SDS011;27537;57.134;-2.136;2023-01-10T03:23:01;9.48;;;2.05;;
41861;SDS011;27537;57.134;-2.136;2023-01-10T03:25:30;11.73;;;2.25;;
41861;SDS011;27537;57.134;-2.136;2023-01-10T03:28:05;7.28;;;1.80;;
41861;SDS011;27537;57.134;-2.136;2023-01-10T03:33:24;12.32;;;1.80;;
41861;SDS011;27537;57.134;-2.136;2023-01-10T03:38:36;6.10;;;1.50;;
41861;SDS011;27537;57.134;-2.136;2023-01-10T03:47:16;8.43;;;2.22;;
41861;SDS011;27537;57.134;-2.136;2023-01-10T03:49:53;7.25;;;1.70;;
41861;SDS011;27537;57.134;-2.136;2023-01-10T03:52:22;11.98;;;2.15;;
41861;SDS011;27537;57.134;-2.136;2023-01-10T03:54:50;5.38;;;1.55;;
41861;SDS011;27537;57.134;-2.136;2023-01-10T03:57:18;12.77;;;2.05;;
41861;SDS011;27537;57.134;-2.136;2023-01-10T03:59:46;4.90;;;1.42;;
41861;SDS011;27537;57.134;-2.136;2023-01-10T04:02:19;7.03;;;1.67;;
41861;SDS011;27537;57.134;-2.136;2023-01-10T04:04:46;7.30;;;1.63;;
41861;SDS011;27537;57.134;-2.136;2023-01-10T04:07:13;7.60;;;2.33;;
41861;SDS011;27537;57.134;-2.136;2023-01-10T04:09:39;4.68;;;1.58;;
41861;SDS011;27537;57.134;-2.136;2023-01-10T04:12:06;9.48;;;1.95;;
41861;SDS011;27537;57.134;-2.136;2023-01-10T04:14:33;5.63;;;1.52;;
41861;SDS011;27537;57.134;-2.136;2023-01-10T04:16:59;7.60;;;2.03;;
41861;SDS011;27537;57.134;-2.136;2023-01-10T04:19:26;3.13;;;1.40;;
41861;SDS011;27537;57.134;-2.136;2023-01-10T04:21:53;5.47;;;1.58;;
41861;SDS011;27537;57.134;-2.136;2023-01-10T04:24:20;8.10;;;1.88;;
41861;SDS011;27537;57.134;-2.136;2023-01-10T04:26:47;6.85;;;1.60;;
41861;SDS011;27537;57.134;-2.136;2023-01-10T04:29:13;4.97;;;1.60;;
41861;SDS011;27537;57.134;-2.136;2023-01-10T04:31:40;9.57;;;2.08;;
41861;SDS011;27537;57.134;-2.136;2023-01-10T04:34:07;10.65;;;1.83;;
41861;SDS011;27537;57.134;-2.136;2023-01-10T04:36:34;3.83;;;1.50;;
41861;SDS011;27537;57.134;-2.136;2023-01-10T04:39:02;10.90;;;2.03;;
41861;SDS011;27537;57.134;-2.136;2023-01-10T04:41:29;4.65;;;1.85;;
41861;SDS011;27537;57.134;-2.136;2023-01-10T04:43:56;11.05;;;2.20;;
41861;SDS011;27537;57.134;-2.136;2023-01-10T04:46:23;7.97;;;1.75;;
41861;SDS011;27537;57.134;-2.136;2023-01-10T04:48:50;8.32;;;1.65;;
41861;SDS011;27537;57.134;-2.136;2023-01-10T04:51:17;8.05;;;2.13;;
41861;SDS011;27537;57.134;-2.136;2023-01-10T04:53:44;7.95;;;1.70;;
41861;SDS011;27537;57.134;-2.136;2023-01-10T04:56:14;8.98;;;1.73;;
41861;SDS011;27537;57.134;-2.136;2023-01-10T04:58:45;6.53;;;1.55;;
41861;SDS011;27537;57.134;-2.136;2023-01-10T05:01:13;9.00;;;1.98;;
41861;SDS011;27537;57.134;-2.136;2023-01-10T05:03:49;5.70;;;1.42;;
41861;SDS011;27537;57.134;-2.136;2023-01-10T05:06:17;7.13;;;1.77;;
41861;SDS011;27537;57.134;-2.136;2023-01-10T05:08:45;4.28;;;1.30;;
41861;SDS011;27537;57.134;-2.136;2023-01-10T05:11:11;4.57;;;1.40;;
41861;SDS011;27537;57.134;-2.136;2023-01-10T05:13:38;9.25;;;1.75;;
41861;SDS011;27537;57.134;-2.136;2023-01-10T05:16:06;5.72;;;1.40;;
41861;SDS011;27537;57.134;-2.136;2023-01-10T05:18:33;2.33;;;1.20;;
41861;SDS011;27537;57.134;-2.136;2023-01-10T05:21:04;5.53;;;1.50;;
41861;SDS011;27537;57.134;-2.136;2023-01-10T05:26:10;4.53;;;1.50;;
41861;SDS011;27537;57.134;-2.136;2023-01-10T05:28:42;7.18;;;1.45;;
41861;SDS011;27537;57.134;-2.136;2023-01-10T05:31:10;3.80;;;1.27;;
41861;SDS011;27537;57.134;-2.136;2023-01-10T05:33:38;4.65;;;1.50;;
41861;SDS011;27537;57.134;-2.136;2023-01-10T05:36:05;7.35;;;1.60;;
41861;SDS011;27537;57.134;-2.136;2023-01-10T05:38:32;13.02;;;2.00;;
41861;SDS011;27537;57.134;-2.136;2023-01-10T05:40:59;6.22;;;1.80;;
41861;SDS011;27537;57.134;-2.136;2023-01-10T05:43:26;6.57;;;1.85;;
41861;SDS011;27537;57.134;-2.136;2023-01-10T05:45:53;7.30;;;1.90;;
41861;SDS011;27537;57.134;-2.136;2023-01-10T05:48:20;8.40;;;1.60;;
41861;SDS011;27537;57.134;-2.136;2023-01-10T05:50:50;5.43;;;1.75;;
41861;SDS011;27537;57.134;-2.136;2023-01-10T05:53:18;5.38;;;1.70;;
41861;SDS011;27537;57.134;-2.136;2023-01-10T05:55:52;6.43;;;1.88;;
41861;SDS011;27537;57.134;-2.136;2023-01-10T05:58:23;6.15;;;1.70;;
41861;SDS011;27537;57.134;-2.136;2023-01-10T06:00:50;4.88;;;1.30;;
41861;SDS011;27537;57.134;-2.136;2023-01-10T06:03:17;6.07;;;1.52;;
41861;SDS011;27537;57.134;-2.136;2023-01-10T06:05:45;6.50;;;1.60;;
41861;SDS011;27537;57.134;-2.136;2023-01-10T06:08:14;5.15;;;1.77;;
41861;SDS011;27537;57.134;-2.136;2023-01-10T06:10:41;8.07;;;1.80;;
41861;SDS011;27537;57.134;-2.136;2023-01-10T06:13:08;6.38;;;1.58;;
41861;SDS011;27537;57.134;-2.136;2023-01-10T06:15:35;9.45;;;2.15;;
41861;SDS011;27537;57.134;-2.136;2023-01-10T06:18:02;6.57;;;1.92;;
41861;SDS011;27537;57.134;-2.136;2023-01-10T06:20:29;6.70;;;1.83;;
41861;SDS011;27537;57.134;-2.136;2023-01-10T06:22:56;6.85;;;1.83;;
41861;SDS011;27537;57.134;-2.136;2023-01-10T06:25:26;5.45;;;1.60;;
41861;SDS011;27537;57.134;-2.136;2023-01-10T06:27:54;5.85;;;2.05;;
41861;SDS011;27537;57.134;-2.136;2023-01-10T06:30:21;6.70;;;1.73;;
41861;SDS011;27537;57.134;-2.136;2023-01-10T06:32:48;6.63;;;1.70;;
41861;SDS011;27537;57.134;-2.136;2023-01-10T06:35:15;11.13;;;2.45;;
41861;SDS011;27537;57.134;-2.136;2023-01-10T06:37:43;10.43;;;1.90;;
41861;SDS011;27537;57.134;-2.136;2023-01-10T06:40:10;8.48;;;2.80;;
41861;SDS011;27537;57.134;-2.136;2023-01-10T06:42:38;11.27;;;2.00;;
41861;SDS011;27537;57.134;-2.136;2023-01-10T06:45:06;8.80;;;1.98;;
41861;SDS011;27537;57.134;-2.136;2023-01-10T06:47:33;9.30;;;2.28;;
41861;SDS011;27537;57.134;-2.136;2023-01-10T06:50:00;7.78;;;2.10;;
41861;SDS011;27537;57.134;-2.136;2023-01-10T06:52:27;9.18;;;2.03;;
41861;SDS011;27537;57.134;-2.136;2023-01-10T06:54:54;13.68;;;3.50;;
41861;SDS011;27537;57.134;-2.136;2023-01-10T06:57:21;17.00;;;3.53;;
41861;SDS011;27537;57.134;-2.136;2023-01-10T06:59:48;7.72;;;1.90;;
41861;SDS011;27537;57.134;-2.136;2023-01-10T07:02:14;10.90;;;2.65;;
41861;SDS011;27537;57.134;-2.136;2023-01-10T07:04:41;7.47;;;2.33;;
41861;SDS011;27537;57.134;-2.136;2023-01-10T07:07:10;10.63;;;2.38;;
41861;SDS011;27537;57.134;-2.136;2023-01-10T07:09:36;10.52;;;2.50;;
41861;SDS011;27537;57.134;-2.136;2023-01-10T07:12:03;17.80;;;3.00;;
41861;SDS011;27537;57.134;-2.136;2023-01-10T07:14:30;13.07;;;3.67;;
41861;SDS011;27537;57.134;-2.136;2023-01-10T07:16:57;13.48;;;2.97;;
41861;SDS011;27537;57.134;-2.136;2023-01-10T07:19:24;15.43;;;4.13;;
41861;SDS011;27537;57.134;-2.136;2023-01-10T07:21:51;10.85;;;2.80;;
41861;SDS011;27537;57.134;-2.136;2023-01-10T07:24:17;12.82;;;3.25;;
41861;SDS011;27537;57.134;-2.136;2023-01-10T07:26:44;13.50;;;4.03;;
41861;SDS011;27537;57.134;-2.136;2023-01-10T07:29:11;17.80;;;4.35;;
41861;SDS011;27537;57.134;-2.136;2023-01-10T07:31:38;19.05;;;4.75;;
41861;SDS011;27537;57.134;-2.136;2023-01-10T07:34:04;11.20;;;2.80;;
41861;SDS011;27537;57.134;-2.136;2023-01-10T07:36:31;12.77;;;2.70;;
41861;SDS011;27537;57.134;-2.136;2023-01-10T07:39:04;7.00;;;2.30;;
41861;SDS011;27537;57.134;-2.136;2023-01-10T07:41:31;16.52;;;3.65;;
41861;SDS011;27537;57.134;-2.136;2023-01-10T07:43:57;17.67;;;3.92;;
41861;SDS011;27537;57.134;-2.136;2023-01-10T07:46:24;16.73;;;4.05;;
41861;SDS011;27537;57.134;-2.136;2023-01-10T07:48:51;21.80;;;5.95;;
41861;SDS011;27537;57.134;-2.136;2023-01-10T07:51:18;16.02;;;4.25;;
41861;SDS011;27537;57.134;-2.136;2023-01-10T07:53:45;16.50;;;4.05;;
41861;SDS011;27537;57.134;-2.136;2023-01-10T07:56:12;19.00;;;5.30;;
41861;SDS011;27537;57.134;-2.136;2023-01-10T07:58:39;19.10;;;5.35;;
41861;SDS011;27537;57.134;-2.136;2023-01-10T08:01:06;12.10;;;3.72;;
41861;SDS011;27537;57.134;-2.136;2023-01-10T08:03:33;25.00;;;4.72;;
41861;SDS011;27537;57.134;-2.136;2023-01-10T08:06:02;20.02;;;4.45;;
41861;SDS011;27537;57.134;-2.136;2023-01-10T08:08:31;17.48;;;4.03;;
41861;SDS011;27537;57.134;-2.136;2023-01-10T08:10:59;15.13;;;3.85;;
41861;SDS011;27537;57.134;-2.136;2023-01-10T08:13:28;14.20;;;4.13;;
41861;SDS011;27537;57.134;-2.136;2023-01-10T08:15:55;18.83;;;4.32;;
41861;SDS011;27537;57.134;-2.136;2023-01-10T08:18:22;15.60;;;3.40;;
41861;SDS011;27537;57.134;-2.136;2023-01-10T08:20:51;14.68;;;4.20;;
41861;SDS011;27537;57.134;-2.136;2023-01-10T08:23:19;14.65;;;3.60;;
41861;SDS011;27537;57.134;-2.136;2023-01-10T08:25:46;20.27;;;4.15;;
41861;SDS011;27537;57.134;-2.136;2023-01-10T08:28:13;19.80;;;3.80;;
41861;SDS011;27537;57.134;-2.136;2023-01-10T08:30:40;13.70;;;5.00;;
41861;SDS011;27537;57.134;-2.136;2023-01-10T08:33:08;21.42;;;4.28;;
41861;SDS011;27537;57.134;-2.136;2023-01-10T08:35:39;20.23;;;4.55;;
41861;SDS011;27537;57.134;-2.136;2023-01-10T08:38:08;15.23;;;3.97;;
41861;SDS011;27537;57.134;-2.136;2023-01-10T08:40:36;17.02;;;4.07;;
41861;SDS011;27537;57.134;-2.136;2023-01-10T08:43:04;14.88;;;3.50;;
41861;SDS011;27537;57.134;-2.136;2023-01-10T08:45:32;16.75;;;3.38;;
41861;SDS011;27537;57.134;-2.136;2023-01-10T08:48:00;20.15;;;3.88;;
41861;SDS011;27537;57.134;-2.136;2023-01-10T08:50:27;14.95;;;3.50;;
41861;SDS011;27537;57.134;-2.136;2023-01-10T08:52:56;14.82;;;3.72;;
41861;SDS011;27537;57.134;-2.136;2023-01-10T08:55:24;20.52;;;5.38;;
41861;SDS011;27537;57.134;-2.136;2023-01-10T08:57:51;11.95;;;3.17;;
41861;SDS011;27537;57.134;-2.136;2023-01-10T09:00:18;16.08;;;3.60;;
41861;SDS011;27537;57.134;-2.136;2023-01-10T09:02:46;11.77;;;4.25;;
41861;SDS011;27537;57.134;-2.136;2023-01-10T09:05:12;17.17;;;3.72;;
41861;SDS011;27537;57.134;-2.136;2023-01-10T09:07:52;14.90;;;3.42;;
41861;SDS011;27537;57.134;-2.136;2023-01-10T09:10:24;11.23;;;3.03;;
41861;SDS011;27537;57.134;-2.136;2023-01-10T09:12:51;11.73;;;3.40;;
41861;SDS011;27537;57.134;-2.136;2023-01-10T09:15:22;15.38;;;4.22;;
41861;SDS011;27537;57.134;-2.136;2023-01-10T09:17:57;15.68;;;3.45;;
41861;SDS011;27537;57.134;-2.136;2023-01-10T09:20:26;21.33;;;3.53;;
41861;SDS011;27537;57.134;-2.136;2023-01-10T09:22:54;13.38;;;3.83;;
41861;SDS011;27537;57.134;-2.136;2023-01-10T09:25:22;14.70;;;3.42;;
41861;SDS011;27537;57.134;-2.136;2023-01-10T09:27:56;9.38;;;2.80;;
41861;SDS011;27537;57.134;-2.136;2023-01-10T09:30:25;13.98;;;3.55;;
41861;SDS011;27537;57.134;-2.136;2023-01-10T09:32:53;15.05;;;2.80;;
41861;SDS011;27537;57.134;-2.136;2023-01-10T09:35:21;16.98;;;2.70;;
41861;SDS011;27537;57.134;-2.136;2023-01-10T09:37:52;17.83;;;2.75;;
41861;SDS011;27537;57.134;-2.136;2023-01-10T09:40:27;10.10;;;2.80;;
41861;SDS011;27537;57.134;-2.136;2023-01-10T09:46:07;15.85;;;3.53;;
41861;SDS011;27537;57.134;-2.136;2023-01-10T09:48:48;13.15;;;3.10;;
41861;SDS011;27537;57.134;-2.136;2023-01-10T09:51:36;12.25;;;3.15;;
41861;SDS011;27537;57.134;-2.136;2023-01-10T09:54:12;16.88;;;3.30;;
41861;SDS011;27537;57.134;-2.136;2023-01-10T09:56:39;14.53;;;3.27;;
41861;SDS011;27537;57.134;-2.136;2023-01-10T09:59:19;16.85;;;4.10;;
41861;SDS011;27537;57.134;-2.136;2023-01-10T10:01:52;17.70;;;2.97;;
41861;SDS011;27537;57.134;-2.136;2023-01-10T10:04:33;16.15;;;3.45;;
41861;SDS011;27537;57.134;-2.136;2023-01-10T10:07:02;15.20;;;3.50;;
41861;SDS011;27537;57.134;-2.136;2023-01-10T10:09:32;15.73;;;3.80;;
41861;SDS011;27537;57.134;-2.136;2023-01-10T10:12:08;12.30;;;3.00;;
41861;SDS011;27537;57.134;-2.136;2023-01-10T10:28:38;10.20;;;3.17;;
41861;SDS011;27537;57.134;-2.136;2023-01-10T10:31:27;7.35;;;2.00;;
41861;SDS011;27537;57.134;-2.136;2023-01-10T10:39:48;12.90;;;2.50;;
41861;SDS011;27537;57.134;-2.136;2023-01-10T10:42:19;10.68;;;2.65;;
41861;SDS011;27537;57.134;-2.136;2023-01-10T10:47:32;11.38;;;2.33;;
41861;SDS011;27537;57.134;-2.136;2023-01-10T10:52:40;13.00;;;3.75;;
41861;SDS011;27537;57.134;-2.136;2023-01-10T10:55:14;9.65;;;2.10;;
41861;SDS011;27537;57.134;-2.136;2023-01-10T10:57:44;14.57;;;3.10;;
41861;SDS011;27537;57.134;-2.136;2023-01-10T11:00:25;13.93;;;2.85;;
41861;SDS011;27537;57.134;-2.136;2023-01-10T11:02:55;13.85;;;3.10;;
41861;SDS011;27537;57.134;-2.136;2023-01-10T11:05:34;12.10;;;2.88;;
41861;SDS011;27537;57.134;-2.136;2023-01-10T11:08:05;14.48;;;2.33;;
41861;SDS011;27537;57.134;-2.136;2023-01-10T11:10:38;12.95;;;2.80;;
41861;SDS011;27537;57.134;-2.136;2023-01-10T11:15:55;9.05;;;2.42;;
41861;SDS011;27537;57.134;-2.136;2023-01-10T11:18:22;10.13;;;2.55;;
41861;SDS011;27537;57.134;-2.136;2023-01-10T11:20:55;10.68;;;2.63;;
41861;SDS011;27537;57.134;-2.136;2023-01-10T11:23:32;12.93;;;2.20;;
41861;SDS011;27537;57.134;-2.136;2023-01-10T11:26:01;11.10;;;2.95;;
41861;SDS011;27537;57.134;-2.136;2023-01-10T11:28:29;15.70;;;3.85;;
41861;SDS011;27537;57.134;-2.136;2023-01-10T11:30:58;14.63;;;2.58;;
41861;SDS011;27537;57.134;-2.136;2023-01-10T11:33:32;8.43;;;2.53;;
41861;SDS011;27537;57.134;-2.136;2023-01-10T11:36:09;15.48;;;3.13;;
41861;SDS011;27537;57.134;-2.136;2023-01-10T11:38:38;15.10;;;2.70;;
41861;SDS011;27537;57.134;-2.136;2023-01-10T11:41:12;14.98;;;2.67;;
41861;SDS011;27537;57.134;-2.136;2023-01-10T11:43:50;15.18;;;2.60;;
41861;SDS011;27537;57.134;-2.136;2023-01-10T11:46:18;11.23;;;2.65;;
41861;SDS011;27537;57.134;-2.136;2023-01-10T11:51:35;17.63;;;3.10;;
41861;SDS011;27537;57.134;-2.136;2023-01-10T11:54:08;14.13;;;2.97;;
41861;SDS011;27537;57.134;-2.136;2023-01-10T11:56:38;18.83;;;4.75;;
41861;SDS011;27537;57.134;-2.136;2023-01-10T11:59:10;14.82;;;4.07;;
41861;SDS011;27537;57.134;-2.136;2023-01-10T12:01:42;14.52;;;4.70;;
41861;SDS011;27537;57.134;-2.136;2023-01-10T12:04:14;31.85;;;4.50;;
41861;SDS011;27537;57.134;-2.136;2023-01-10T12:06:43;23.55;;;5.03;;
41861;SDS011;27537;57.134;-2.136;2023-01-10T12:12:03;19.83;;;3.20;;
41861;SDS011;27537;57.134;-2.136;2023-01-10T12:14:31;15.10;;;3.85;;
41861;SDS011;27537;57.134;-2.136;2023-01-10T12:16:59;19.20;;;3.72;;
41861;SDS011;27537;57.134;-2.136;2023-01-10T12:19:29;19.25;;;4.03;;
41861;SDS011;27537;57.134;-2.136;2023-01-10T12:21:58;25.05;;;4.72;;
41861;SDS011;27537;57.134;-2.136;2023-01-10T12:24:30;20.45;;;3.92;;
41861;SDS011;27537;57.134;-2.136;2023-01-10T12:27:01;17.92;;;3.97;;
41861;SDS011;27537;57.134;-2.136;2023-01-10T12:29:33;22.98;;;5.45;;
41861;SDS011;27537;57.134;-2.136;2023-01-10T12:32:04;28.17;;;4.15;;
41861;SDS011;27537;57.134;-2.136;2023-01-10T12:34:40;17.25;;;4.03;;
41861;SDS011;27537;57.134;-2.136;2023-01-10T12:37:15;25.08;;;4.22;;
41861;SDS011;27537;57.134;-2.136;2023-01-10T12:39:52;19.13;;;4.18;;
41861;SDS011;27537;57.134;-2.136;2023-01-10T12:42:44;22.92;;;4.65;;
41861;SDS011;27537;57.134;-2.136;2023-01-10T12:45:40;16.45;;;4.38;;
41861;SDS011;27537;57.134;-2.136;2023-01-10T12:48:18;22.15;;;4.50;;
41861;SDS011;27537;57.134;-2.136;2023-01-10T12:51:00;22.30;;;4.55;;
41861;SDS011;27537;57.134;-2.136;2023-01-10T12:53:31;26.97;;;6.17;;
41861;SDS011;27537;57.134;-2.136;2023-01-10T12:56:02;15.13;;;3.55;;
41861;SDS011;27537;57.134;-2.136;2023-01-10T12:58:34;19.08;;;4.28;;
41861;SDS011;27537;57.134;-2.136;2023-01-10T13:01:03;19.65;;;4.78;;
41861;SDS011;27537;57.134;-2.136;2023-01-10T13:03:32;21.63;;;4.95;;
41861;SDS011;27537;57.134;-2.136;2023-01-10T13:06:01;20.40;;;4.38;;
41861;SDS011;27537;57.134;-2.136;2023-01-10T13:08:30;14.32;;;3.90;;
41861;SDS011;27537;57.134;-2.136;2023-01-10T13:11:00;32.45;;;6.40;;
41861;SDS011;27537;57.134;-2.136;2023-01-10T13:19:02;10.55;;;3.08;;
41861;SDS011;27537;57.134;-2.136;2023-01-10T13:21:32;17.65;;;3.15;;
41861;SDS011;27537;57.134;-2.136;2023-01-10T13:26:44;15.27;;;3.60;;
41861;SDS011;27537;57.134;-2.136;2023-01-10T13:29:13;23.35;;;4.05;;
41861;SDS011;27537;57.134;-2.136;2023-01-10T13:31:44;15.68;;;3.63;;
41861;SDS011;27537;57.134;-2.136;2023-01-10T13:34:13;19.40;;;4.35;;
41861;SDS011;27537;57.134;-2.136;2023-01-10T13:36:48;21.42;;;4.28;;
41861;SDS011;27537;57.134;-2.136;2023-01-10T13:53:03;12.45;;;2.47;;
41861;SDS011;27537;57.134;-2.136;2023-01-10T14:01:24;14.70;;;4.22;;
41861;SDS011;27537;57.134;-2.136;2023-01-10T14:07:00;22.55;;;3.38;;
41861;SDS011;27537;57.134;-2.136;2023-01-10T14:09:37;24.77;;;4.32;;
41861;SDS011;27537;57.134;-2.136;2023-01-10T14:12:23;24.27;;;4.60;;
41861;SDS011;27537;57.134;-2.136;2023-01-10T14:14:56;26.70;;;5.30;;
41861;SDS011;27537;57.134;-2.136;2023-01-10T14:17:43;17.52;;;4.75;;
41861;SDS011;27537;57.134;-2.136;2023-01-10T14:20:14;26.17;;;4.28;;
41861;SDS011;27537;57.134;-2.136;2023-01-10T14:22:56;26.35;;;4.25;;
41861;SDS011;27537;57.134;-2.136;2023-01-10T14:25:41;15.60;;;3.33;;
41861;SDS011;27537;57.134;-2.136;2023-01-10T14:28:43;19.60;;;3.72;;
41861;SDS011;27537;57.134;-2.136;2023-01-10T14:31:06;25.65;;;6.22;;
41861;SDS011;27537;57.134;-2.136;2023-01-10T14:33:39;15.55;;;4.85;;
41861;SDS011;27537;57.134;-2.136;2023-01-10T14:36:09;18.73;;;3.83;;
41861;SDS011;27537;57.134;-2.136;2023-01-10T14:38:46;24.15;;;4.65;;
41861;SDS011;27537;57.134;-2.136;2023-01-10T14:41:18;19.17;;;4.57;;
41861;SDS011;27537;57.134;-2.136;2023-01-10T14:43:54;20.85;;;5.03;;
41861;SDS011;27537;57.134;-2.136;2023-01-10T14:47:20;20.95;;;3.80;;
41861;SDS011;27537;57.134;-2.136;2023-01-10T14:49:27;19.80;;;4.18;;
41861;SDS011;27537;57.134;-2.136;2023-01-10T14:55:12;32.30;;;5.38;;
41861;SDS011;27537;57.134;-2.136;2023-01-10T14:57:52;24.83;;;5.45;;
41861;SDS011;27537;57.134;-2.136;2023-01-10T15:00:24;19.23;;;5.97;;
41861;SDS011;27537;57.134;-2.136;2023-01-10T15:02:53;15.90;;;4.35;;
41861;SDS011;27537;57.134;-2.136;2023-01-10T15:05:24;19.80;;;4.32;;
41861;SDS011;27537;57.134;-2.136;2023-01-10T15:07:53;19.17;;;5.78;;
41861;SDS011;27537;57.134;-2.136;2023-01-10T15:10:22;18.73;;;4.43;;
41861;SDS011;27537;57.134;-2.136;2023-01-10T15:12:57;15.55;;;4.68;;
41861;SDS011;27537;57.134;-2.136;2023-01-10T15:15:29;17.42;;;5.50;;
41861;SDS011;27537;57.134;-2.136;2023-01-10T15:17:59;22.02;;;4.70;;
41861;SDS011;27537;57.134;-2.136;2023-01-10T15:20:27;18.85;;;4.60;;
41861;SDS011;27537;57.134;-2.136;2023-01-10T15:22:56;26.92;;;5.38;;
41861;SDS011;27537;57.134;-2.136;2023-01-10T15:28:13;17.13;;;4.57;;
41861;SDS011;27537;57.134;-2.136;2023-01-10T15:30:41;17.85;;;4.78;;
41861;SDS011;27537;57.134;-2.136;2023-01-10T15:33:13;20.02;;;3.88;;
41861;SDS011;27537;57.134;-2.136;2023-01-10T15:35:42;21.80;;;4.57;;
41861;SDS011;27537;57.134;-2.136;2023-01-10T15:38:13;20.27;;;4.55;;
41861;SDS011;27537;57.134;-2.136;2023-01-10T15:40:56;22.70;;;5.50;;
41861;SDS011;27537;57.134;-2.136;2023-01-10T15:43:28;16.05;;;4.45;;
41861;SDS011;27537;57.134;-2.136;2023-01-10T15:45:57;25.02;;;4.72;;
41861;SDS011;27537;57.134;-2.136;2023-01-10T15:48:29;15.00;;;3.83;;
41861;SDS011;27537;57.134;-2.136;2023-01-10T15:51:33;14.93;;;4.38;;
41861;SDS011;27537;57.134;-2.136;2023-01-10T15:58:58;17.90;;;5.00;;
41861;SDS011;27537;57.134;-2.136;2023-01-10T16:01:26;14.23;;;5.43;;
41861;SDS011;27537;57.134;-2.136;2023-01-10T16:03:58;11.50;;;3.75;;
41861;SDS011;27537;57.134;-2.136;2023-01-10T16:06:32;11.75;;;4.47;;
41861;SDS011;27537;57.134;-2.136;2023-01-10T16:09:02;17.25;;;4.45;;
41861;SDS011;27537;57.134;-2.136;2023-01-10T16:14:34;12.75;;;3.10;;
41861;SDS011;27537;57.134;-2.136;2023-01-10T16:17:01;13.95;;;3.75;;
41861;SDS011;27537;57.134;-2.136;2023-01-10T16:19:28;18.95;;;4.68;;
41861;SDS011;27537;57.134;-2.136;2023-01-10T16:21:56;22.88;;;4.63;;
41861;SDS011;27537;57.134;-2.136;2023-01-10T16:24:25;14.77;;;3.67;;
41861;SDS011;27537;57.134;-2.136;2023-01-10T16:26:54;20.08;;;4.95;;
41861;SDS011;27537;57.134;-2.136;2023-01-10T16:29:23;12.68;;;4.07;;
41861;SDS011;27537;57.134;-2.136;2023-01-10T16:31:50;14.27;;;4.20;;
41861;SDS011;27537;57.134;-2.136;2023-01-10T16:34:18;14.20;;;4.03;;
41861;SDS011;27537;57.134;-2.136;2023-01-10T16:36:46;15.68;;;4.40;;
41861;SDS011;27537;57.134;-2.136;2023-01-10T16:39:14;15.45;;;4.00;;
41861;SDS011;27537;57.134;-2.136;2023-01-10T16:41:43;14.20;;;3.90;;
41861;SDS011;27537;57.134;-2.136;2023-01-10T16:44:29;13.68;;;3.65;;
41861;SDS011;27537;57.134;-2.136;2023-01-10T16:46:57;16.77;;;4.18;;
41861;SDS011;27537;57.134;-2.136;2023-01-10T16:49:24;17.67;;;3.20;;
41861;SDS011;27537;57.134;-2.136;2023-01-10T16:51:51;17.42;;;4.25;;
41861;SDS011;27537;57.134;-2.136;2023-01-10T16:54:20;18.23;;;4.40;;
41861;SDS011;27537;57.134;-2.136;2023-01-10T16:56:50;11.50;;;3.88;;
41861;SDS011;27537;57.134;-2.136;2023-01-10T16:59:17;19.80;;;5.38;;